createdAt,value
2022-12-22T00:01:35.935Z,99197.72
2022-12-22T00:04:41.665Z,99198.88
2022-12-22T00:07:47.384Z,99192.22
2022-12-22T00:10:53.043Z,99182.38
2022-12-22T00:14:00.144Z,99188.31
2022-12-22T00:17:07.535Z,99185.53
2022-12-22T00:20:18.282Z,99183.16
2022-12-22T00:23:24.491Z,99176.50
2022-12-22T00:26:30.708Z,99177.28
2022-12-22T00:29:36.508Z,99173.78
2022-12-22T00:32:48.596Z,99175.34
2022-12-22T00:35:54.266Z,99161.97
2022-12-22T00:38:59.683Z,99162.38
2022-12-22T00:42:05.268Z,99158.06
2022-12-22T00:45:11.136Z,99157.69
2022-12-22T00:48:18.396Z,99154.13
2022-12-22T00:51:24.639Z,99156.91
2022-12-22T00:54:31.932Z,99138.06
2022-12-22T00:57:41.874Z,99138.03
2022-12-22T01:00:47.576Z,99137.66
2022-12-22T01:03:54.657Z,99128.25
2022-12-22T01:07:01.887Z,99127.06
2022-12-22T01:10:09.982Z,99135.31
2022-12-22T01:13:15.653Z,99136.50
2022-12-22T01:16:21.240Z,99130.97
2022-12-22T01:19:27.961Z,99138.06
2022-12-22T01:22:39.620Z,99118.03
2022-12-22T01:25:45.435Z,99109.81
2022-12-22T01:28:51.099Z,99101.53
2022-12-22T01:31:57.349Z,99117.63
2022-12-22T01:35:04.328Z,99090.19
2022-12-22T01:38:10.084Z,99105.88
2022-12-22T01:41:17.416Z,99095.66
2022-12-22T01:44:32.144Z,99069.41
2022-12-22T01:47:49.498Z,99086.66
2022-12-22T01:50:56.457Z,99072.53
2022-12-22T01:54:02.241Z,99074.91
2022-12-22T01:57:08.456Z,99071.72
2022-12-22T02:00:14.083Z,99070.94
2022-12-22T02:03:19.898Z,99066.63
2022-12-22T02:06:36.860Z,99071.72
2022-12-22T02:09:58.506Z,99075.69
2022-12-22T02:13:08.752Z,99068.59
2022-12-22T02:16:20.195Z,99068.59
2022-12-22T02:19:33.973Z,99077.63
2022-12-22T02:22:47.911Z,99063.09
2022-12-22T02:25:59.951Z,99045.84
2022-12-22T02:29:08.653Z,99054.09
2022-12-22T02:32:14.934Z,99043.88
2022-12-22T02:35:20.785Z,99044.66
2022-12-22T02:38:37.618Z,99028.94
2022-12-22T02:41:50.772Z,99029.75
2022-12-22T02:45:04.794Z,98975.66
2022-12-22T02:48:21.148Z,99017.59
2022-12-22T02:51:32.550Z,99024.66
2022-12-22T02:54:40.744Z,99006.19
2022-12-22T02:57:47.560Z,99021.16
2022-12-22T03:00:54.606Z,99004.25
2022-12-22T03:04:00.171Z,98996.81
2022-12-22T03:07:05.796Z,98989.31
2022-12-22T03:10:11.481Z,99001.47
2022-12-22T03:13:17.673Z,98982.28
2022-12-22T03:16:24.668Z,98980.72
2022-12-22T03:19:30.390Z,98981.50
2022-12-22T03:22:35.948Z,98989.72
2022-12-22T03:25:41.842Z,98988.09
2022-12-22T03:28:30.213Z,98971.97
2022-12-22T03:31:19.588Z,98971.25
2022-12-22T03:34:07.582Z,98966.88
2022-12-22T03:36:55.566Z,98959.84
2022-12-22T03:39:43.519Z,98961.00
2022-12-22T03:42:49.389Z,98951.22
2022-12-22T03:45:54.106Z,98957.09
2022-12-22T03:48:43.768Z,98950.44
2022-12-22T03:51:31.755Z,98951.19
2022-12-22T03:54:21.854Z,98963.34
2022-12-22T03:57:09.900Z,98951.97
2022-12-22T03:59:58.013Z,98950.38
2022-12-22T04:02:46.199Z,98953.97
2022-12-22T04:05:35.708Z,98931.53
2022-12-22T04:08:23.676Z,98942.47
2022-12-22T04:11:30.732Z,98940.94
2022-12-22T04:14:18.776Z,98935.03
2022-12-22T04:17:08.143Z,98938.16
2022-12-22T04:19:56.138Z,98936.19
2022-12-22T04:22:45.740Z,98935.03
2022-12-22T04:25:33.813Z,98935.38
2022-12-22T04:28:21.888Z,98927.19
2022-12-22T04:31:09.886Z,98922.03
2022-12-22T04:33:57.870Z,98915.34
2022-12-22T04:36:45.942Z,98911.09
2022-12-22T04:39:35.318Z,98915.81
2022-12-22T04:42:23.355Z,98912.28
2022-12-22T04:45:12.058Z,98906.81
2022-12-22T04:48:00.095Z,98876.25
2022-12-22T04:50:51.465Z,98876.25
2022-12-22T04:53:39.532Z,98899.31
2022-12-22T04:56:28.848Z,98902.91
2022-12-22T04:59:16.793Z,98898.59
2022-12-22T05:02:04.836Z,98889.22
2022-12-22T05:04:52.989Z,98877.38
2022-12-22T05:07:40.965Z,98876.63
2022-12-22T05:10:29.024Z,98868.06
2022-12-22T05:13:18.365Z,98871.63
2022-12-22T05:16:07.896Z,98886.47
2022-12-22T05:18:56.025Z,98875.53
2022-12-22T05:21:44.052Z,98865.72
2022-12-22T05:24:32.045Z,98813.78
2022-12-22T05:27:20.559Z,98878.28
2022-12-22T05:30:11.222Z,98891.59
2022-12-22T05:32:59.168Z,98891.63
2022-12-22T05:35:47.145Z,98899.09
2022-12-22T05:38:35.160Z,98888.47
2022-12-22T05:41:23.202Z,98886.91
2022-12-22T05:44:11.281Z,98892.41
2022-12-22T05:47:00.580Z,98895.16
2022-12-22T05:49:48.514Z,98885.31
2022-12-22T05:52:36.879Z,98781.63
2022-12-22T05:55:24.903Z,98888.44
2022-12-22T05:58:12.874Z,98885.25
2022-12-22T06:01:02.516Z,98852.81
2022-12-22T06:03:57.758Z,98883.28
2022-12-22T06:06:47.812Z,98876.63
2022-12-22T06:09:35.828Z,98853.50
2022-12-22T06:12:23.873Z,98858.88
2022-12-22T06:15:14.328Z,98868.72
2022-12-22T06:18:02.322Z,98861.63
2022-12-22T06:20:53.544Z,98867.91
2022-12-22T06:23:41.551Z,98870.25
2022-12-22T06:26:29.509Z,98876.13
2022-12-22T06:29:17.539Z,98868.25
2022-12-22T06:32:06.119Z,98880.84
2022-12-22T06:34:54.097Z,98875.31
2022-12-22T06:37:43.391Z,98877.72
2022-12-22T06:40:31.412Z,98876.88
2022-12-22T06:43:19.265Z,98873.78
2022-12-22T06:46:07.280Z,98867.91
2022-12-22T06:48:55.284Z,98876.53
2022-12-22T06:51:43.672Z,98865.19
2022-12-22T06:54:32.979Z,98874.56
2022-12-22T06:57:20.897Z,98874.97
2022-12-22T07:00:10.543Z,98869.81
2022-12-22T07:02:58.850Z,98866.72
2022-12-22T07:05:27.008Z,98874.22
2022-12-22T07:07:54.821Z,98869.84
2022-12-22T07:10:43.849Z,98867.50
2022-12-22T07:13:20.277Z,98886.75
2022-12-22T07:15:50.958Z,98878.09
2022-12-22T07:18:25.376Z,98876.50
2022-12-22T07:20:53.228Z,98882.06
2022-12-22T07:23:20.963Z,98892.25
2022-12-22T07:25:49.964Z,98886.75
2022-12-22T07:28:20.895Z,98896.59
2022-12-22T07:30:48.825Z,98893.41
2022-12-22T07:33:16.917Z,98885.13
2022-12-22T07:35:44.873Z,98879.31
2022-12-22T07:38:13.282Z,98895.00
2022-12-22T07:40:42.373Z,98888.34
2022-12-22T07:43:11.138Z,98889.84
2022-12-22T07:45:39.286Z,98885.53
2022-12-22T07:48:27.347Z,98896.13
2022-12-22T07:50:55.202Z,98911.47
2022-12-22T07:53:22.879Z,98893.06
2022-12-22T07:55:50.585Z,98907.13
2022-12-22T07:58:19.667Z,98902.38
2022-12-22T08:00:47.930Z,98900.47
2022-12-22T08:03:15.714Z,98911.44
2022-12-22T08:05:44.475Z,98900.00
2022-12-22T08:08:12.195Z,98906.31
2022-12-22T08:10:39.927Z,98912.50
2022-12-22T08:13:07.722Z,98901.13
2022-12-22T08:15:38.000Z,98903.13
2022-12-22T08:18:05.858Z,98901.56
2022-12-22T08:20:33.575Z,98913.66
2022-12-22T08:23:01.279Z,98907.84
2022-12-22T08:25:29.067Z,98906.94
2022-12-22T08:27:58.249Z,98895.63
2022-12-22T08:30:26.415Z,98903.81
2022-12-22T08:32:55.446Z,98897.16
2022-12-22T08:35:23.285Z,98899.06
2022-12-22T08:37:52.619Z,98894.28
2022-12-22T08:40:23.531Z,98903.72
2022-12-22T08:42:55.223Z,98910.72
2022-12-22T08:45:22.938Z,98901.31
2022-12-22T08:47:50.638Z,98892.16
2022-12-22T08:50:19.764Z,98896.03
2022-12-22T08:52:47.495Z,98815.63
2022-12-22T08:55:15.317Z,98898.75
2022-12-22T08:57:43.185Z,98905.09
2022-12-22T09:00:13.517Z,98899.91
2022-12-22T09:02:41.606Z,98900.34
2022-12-22T09:05:10.130Z,98902.75
2022-12-22T09:07:39.171Z,98893.75
2022-12-22T09:10:08.222Z,98909.88
2022-12-22T09:12:36.131Z,98896.41
2022-12-22T09:15:03.971Z,98894.88
2022-12-22T09:17:31.612Z,98897.22
2022-12-22T09:19:59.490Z,98899.53
2022-12-22T09:22:28.365Z,98898.28
2022-12-22T09:24:57.947Z,98914.88
2022-12-22T09:27:25.686Z,98912.50
2022-12-22T09:29:53.386Z,98912.84
2022-12-22T09:32:21.085Z,98911.31
2022-12-22T09:34:49.283Z,98913.69
2022-12-22T09:37:17.352Z,98911.31
2022-12-22T09:39:45.248Z,98921.19
2022-12-22T09:42:16.476Z,98925.41
2022-12-22T09:44:46.308Z,98940.41
2022-12-22T09:47:19.859Z,98938.88
2022-12-22T09:49:47.759Z,98933.41
2022-12-22T09:52:26.167Z,98938.13
2022-12-22T09:54:53.946Z,98941.19
2022-12-22T09:57:29.813Z,98932.63
2022-12-22T09:59:58.689Z,98929.16
2022-12-22T10:02:32.835Z,98947.25
2022-12-22T10:05:15.931Z,98938.59
2022-12-22T10:07:44.495Z,98938.25
2022-12-22T10:10:24.820Z,98954.84
2022-12-22T10:12:56.094Z,98957.56
2022-12-22T10:15:24.627Z,98945.75
2022-12-22T10:17:54.396Z,98956.88
2022-12-22T10:20:26.283Z,98965.13
2022-12-22T10:22:56.308Z,98965.59
2022-12-22T10:25:51.873Z,98962.06
2022-12-22T10:28:25.204Z,98976.97
2022-12-22T10:31:11.434Z,98968.31
2022-12-22T10:33:45.953Z,98967.88
2022-12-22T10:36:15.870Z,98976.50
2022-12-22T10:38:57.213Z,98972.16
2022-12-22T10:41:28.189Z,98982.31
2022-12-22T10:43:59.963Z,98982.38
2022-12-22T10:46:35.020Z,98989.34
2022-12-22T10:49:17.817Z,98999.59
2022-12-22T10:51:48.009Z,98991.66
2022-12-22T10:54:30.301Z,98999.56
2022-12-22T10:57:07.909Z,98994.84
2022-12-22T10:59:49.082Z,99001.13
2022-12-22T11:02:30.076Z,99003.03
2022-12-22T11:05:04.102Z,99006.19
2022-12-22T11:07:34.599Z,99012.75
2022-12-22T11:10:02.759Z,99014.72
2022-12-22T11:12:39.145Z,99012.06
2022-12-22T11:15:24.283Z,99019.53
2022-12-22T11:17:59.322Z,99028.56
2022-12-22T11:20:47.259Z,99025.28
2022-12-22T11:23:26.446Z,99030.41
2022-12-22T11:26:01.518Z,99040.19
2022-12-22T11:28:54.175Z,99030.84
2022-12-22T11:31:39.878Z,99030.38
2022-12-22T11:34:21.513Z,99030.75
2022-12-22T11:37:03.408Z,99043.63
2022-12-22T11:39:41.290Z,99033.91
2022-12-22T11:42:25.636Z,99046.50
2022-12-22T11:45:04.869Z,99035.88
2022-12-22T11:47:44.753Z,99053.91
2022-12-22T11:50:58.533Z,99064.63
2022-12-22T11:53:53.907Z,99062.19
2022-12-22T11:56:25.214Z,99063.47
2022-12-22T11:59:11.618Z,99058.28
2022-12-22T12:01:59.019Z,99070.91
2022-12-22T12:04:48.506Z,99080.31
2022-12-22T12:07:26.254Z,99074.03
2022-12-22T12:10:03.333Z,99081.47
2022-12-22T12:12:43.439Z,99087.72
2022-12-22T12:15:23.751Z,99093.16
2022-12-22T12:18:22.642Z,99092.84
2022-12-22T12:21:03.239Z,99103.09
2022-12-22T12:23:51.103Z,99107.31
2022-12-22T12:26:23.919Z,99110.88
2022-12-22T12:29:05.702Z,99109.78
2022-12-22T12:31:40.333Z,99118.06
2022-12-22T12:34:13.686Z,99123.88
2022-12-22T12:36:49.575Z,99128.00
2022-12-22T12:39:23.684Z,99119.63
2022-12-22T12:42:00.292Z,99138.91
2022-12-22T12:44:32.520Z,99144.44
2022-12-22T12:47:23.900Z,99150.22
2022-12-22T12:50:27.181Z,99155.78
2022-12-22T12:53:07.934Z,99152.59
2022-12-22T12:55:52.992Z,99157.41
2022-12-22T12:59:02.338Z,99154.63
2022-12-22T13:01:58.108Z,99175.09
2022-12-22T13:05:14.798Z,99170.75
2022-12-22T13:08:14.377Z,99173.13
2022-12-22T13:12:01.197Z,99177.06
2022-12-22T13:14:11.350Z,99182.94
2022-12-22T13:16:41.275Z,99187.22
2022-12-22T13:19:20.688Z,99190.03
2022-12-22T13:21:54.260Z,99198.22
2022-12-22T13:24:29.715Z,99207.31
2022-12-22T13:27:06.574Z,99204.56
2022-12-22T13:29:46.255Z,99209.31
2022-12-22T13:32:22.027Z,99210.06
2022-12-22T13:35:29.944Z,99209.72
2022-12-22T13:37:47.712Z,99219.53
2022-12-22T13:40:20.043Z,99216.34
2022-12-22T13:42:50.347Z,99225.00
2022-12-22T13:45:30.621Z,99222.28
2022-12-22T13:48:00.708Z,99219.53
2022-12-22T13:50:33.322Z,99220.31
2022-12-22T13:53:03.888Z,99227.78
2022-12-22T13:55:34.070Z,99228.53
2022-12-22T13:58:07.155Z,99236.00
2022-12-22T14:00:35.319Z,99243.88
2022-12-22T14:03:04.812Z,99235.22
2022-12-22T14:05:34.223Z,99232.09
2022-12-22T14:08:04.076Z,99231.72
2022-12-22T14:10:36.788Z,99237.59
2022-12-22T14:13:08.834Z,99241.88
2022-12-22T14:15:36.614Z,99242.31
2022-12-22T14:18:04.625Z,99233.63
2022-12-22T14:20:36.438Z,99239.53
2022-12-22T14:23:07.416Z,99239.88
2022-12-22T14:25:39.213Z,99227.31
2022-12-22T14:28:09.620Z,99169.34
2022-12-22T14:30:39.789Z,99235.28
2022-12-22T14:33:27.268Z,99261.91
2022-12-22T14:36:06.096Z,99254.47
2022-12-22T14:38:40.582Z,99260.41
2022-12-22T14:41:39.667Z,99257.25
2022-12-22T14:44:11.888Z,99250.16
2022-12-22T14:46:40.020Z,99261.56
2022-12-22T14:49:14.463Z,99269.03
2022-12-22T14:51:42.387Z,99260.78
2022-12-22T14:54:19.898Z,99260.72
2022-12-22T14:56:52.066Z,99255.63
2022-12-22T14:59:27.964Z,99254.44
2022-12-22T15:02:01.115Z,99249.31
2022-12-22T15:04:29.757Z,99252.47
2022-12-22T15:07:45.653Z,99257.59
2022-12-22T15:10:20.727Z,99254.41
2022-12-22T15:12:50.742Z,99260.78
2022-12-22T15:15:21.264Z,99250.13
2022-12-22T15:17:50.873Z,99260.31
2022-12-22T15:20:21.466Z,99261.50
2022-12-22T15:22:49.350Z,99250.88
2022-12-22T15:25:19.246Z,99252.81
2022-12-22T15:27:47.158Z,99247.72
2022-12-22T15:30:18.126Z,99262.31
2022-12-22T15:32:46.392Z,99255.66
2022-12-22T15:35:20.302Z,99263.56
2022-12-22T15:37:48.027Z,99259.66
2022-12-22T15:40:21.115Z,99274.22
2022-12-22T15:42:49.233Z,99236.97
2022-12-22T15:45:19.652Z,99257.34
2022-12-22T15:47:50.918Z,99268.00
2022-12-22T15:50:21.585Z,99256.22
2022-12-22T15:52:52.525Z,99268.41
2022-12-22T15:55:20.855Z,99255.84
2022-12-22T15:57:51.412Z,99260.56
2022-12-22T16:00:22.555Z,99262.94
2022-12-22T16:02:50.854Z,99262.91
2022-12-22T16:05:19.532Z,99260.94
2022-12-22T16:07:47.361Z,99259.78
2022-12-22T16:10:25.395Z,99262.88
2022-12-22T16:12:59.970Z,99262.09
2022-12-22T16:15:30.655Z,99252.28
2022-12-22T16:17:59.351Z,99253.47
2022-12-22T16:20:29.632Z,99247.97
2022-12-22T16:22:59.714Z,99250.69
2022-12-22T16:25:31.127Z,99255.81
2022-12-22T16:27:58.835Z,99247.19
2022-12-22T16:30:30.365Z,99246.00
2022-12-22T16:32:58.083Z,99247.97
2022-12-22T16:35:28.685Z,99240.09
2022-12-22T16:37:59.318Z,99238.56
2022-12-22T16:40:28.470Z,99232.66
2022-12-22T16:45:47.448Z,99231.88
2022-12-22T16:48:19.811Z,99214.97
2022-12-22T16:50:48.847Z,99213.00
2022-12-22T16:53:16.679Z,99213.06
2022-12-22T16:55:44.446Z,99221.66
2022-12-22T16:58:14.171Z,99216.97
2022-12-22T17:00:44.721Z,99210.66
2022-12-22T17:03:16.323Z,99226.78
2022-12-22T17:05:48.151Z,99226.78
2022-12-22T17:08:21.497Z,99226.78
2022-12-22T17:10:49.602Z,99223.63
2022-12-22T17:13:18.537Z,99210.66
2022-12-22T17:15:46.466Z,99220.88
2022-12-22T17:18:20.767Z,99218.53
2022-12-22T17:20:51.066Z,99223.22
2022-12-22T17:23:31.367Z,99205.16
2022-12-22T17:26:00.484Z,99203.59
2022-12-22T17:28:28.626Z,99174.91
2022-12-22T17:30:56.418Z,99205.94
2022-12-22T17:33:25.544Z,99200.03
2022-12-22T17:35:53.709Z,99192.56
2022-12-22T17:38:24.484Z,99187.47
2022-12-22T17:40:52.505Z,99185.91
2022-12-22T17:43:22.344Z,99181.59
2022-12-22T17:45:50.035Z,99187.09
2022-12-22T17:48:18.179Z,99182.78
2022-12-22T17:50:49.467Z,99178.44
2022-12-22T17:53:20.618Z,99176.88
2022-12-22T17:58:36.543Z,99171.75
2022-12-22T18:01:04.359Z,99165.06
2022-12-22T18:03:32.130Z,99148.94
2022-12-22T18:06:01.244Z,99163.91
2022-12-22T18:08:28.993Z,99150.88
2022-12-22T18:10:56.753Z,99141.09
2022-12-22T18:13:26.299Z,99145.81
2022-12-22T18:15:55.989Z,99133.59
2022-12-22T18:18:24.165Z,99147.34
2022-12-22T18:21:07.641Z,99153.63
2022-12-22T18:23:37.893Z,99138.72
2022-12-22T18:26:08.284Z,99123.03
2022-12-22T18:28:36.456Z,99134.38
2022-12-22T18:31:04.311Z,99112.47
2022-12-22T18:33:32.152Z,99129.34
2022-12-22T18:36:00.192Z,99118.31
2022-12-22T18:38:30.783Z,99119.84
2022-12-22T18:41:00.373Z,99117.44
2022-12-22T18:43:28.328Z,99107.69
2022-12-22T18:45:56.067Z,99109.66
2022-12-22T18:48:23.785Z,99103.00
2022-12-22T18:50:51.575Z,99099.41
2022-12-22T18:53:25.755Z,99106.88
2022-12-22T18:55:54.197Z,99107.19
2022-12-22T18:58:23.431Z,99097.78
2022-12-22T19:00:52.645Z,99057.81
2022-12-22T19:03:22.766Z,99085.31
2022-12-22T19:05:50.846Z,99095.53
2022-12-22T19:08:19.695Z,99096.69
2022-12-22T19:10:49.718Z,99091.22
2022-12-22T19:13:27.732Z,99077.97
2022-12-22T19:15:56.292Z,99042.25
2022-12-22T19:18:27.307Z,99077.53
2022-12-22T19:20:56.063Z,99072.81
2022-12-22T19:23:25.618Z,99035.56
2022-12-22T19:25:56.197Z,99067.31
2022-12-22T19:28:30.103Z,99064.97
2022-12-22T19:30:58.159Z,99073.63
2022-12-22T19:33:30.459Z,99077.22
2022-12-22T19:35:59.007Z,99081.50
2022-12-22T19:38:27.982Z,99078.38
2022-12-22T19:40:59.224Z,99073.28
2022-12-22T19:43:28.562Z,99066.25
2022-12-22T19:45:56.782Z,99062.31
2022-12-22T19:48:27.435Z,99056.44
2022-12-22T19:50:55.384Z,99059.19
2022-12-22T19:53:23.113Z,99052.53
2022-12-22T19:55:53.768Z,99054.88
2022-12-22T19:58:24.903Z,99045.09
2022-12-22T20:00:55.343Z,99044.28
2022-12-22T20:03:25.965Z,99037.63
2022-12-22T20:05:54.044Z,98997.66
2022-12-22T20:08:21.714Z,99029.41
2022-12-22T20:10:54.447Z,99023.53
2022-12-22T20:13:26.891Z,99029.41
2022-12-22T20:15:55.890Z,99030.97
2022-12-22T20:18:27.502Z,99016.84
2022-12-22T20:21:01.225Z,99015.66
2022-12-22T20:23:32.925Z,99018.81
2022-12-22T20:26:04.348Z,99001.13
2022-12-22T20:28:34.482Z,99003.09
2022-12-22T20:31:04.787Z,99000.75
2022-12-22T20:33:33.437Z,98992.88
2022-12-22T20:36:02.629Z,99003.88
2022-12-22T20:38:34.067Z,98987.78
2022-12-22T20:41:03.056Z,98996.81
2022-12-22T20:43:32.515Z,98962.31
2022-12-22T20:46:07.600Z,98987.34
2022-12-22T20:48:39.229Z,98988.53
2022-12-22T20:51:11.759Z,98973.25
2022-12-22T20:53:39.504Z,98976.78
2022-12-22T20:56:12.164Z,98984.25
2022-12-22T20:58:39.866Z,98978.34
2022-12-22T21:01:08.966Z,98971.25
2022-12-22T21:03:55.350Z,98974.00
2022-12-22T21:06:46.382Z,98976.34
2022-12-22T21:09:34.689Z,98960.69
2022-12-22T21:12:22.614Z,98952.03
2022-12-22T21:15:17.382Z,98948.13
2022-12-22T21:18:13.867Z,98947.31
2022-12-22T21:21:01.923Z,98908.59
2022-12-22T21:23:50.035Z,98920.69
2022-12-22T21:26:42.715Z,98934.00
2022-12-22T21:29:30.968Z,98930.81
2022-12-22T21:32:19.029Z,98937.13
2022-12-22T21:35:13.349Z,98927.28
2022-12-22T21:38:01.863Z,98878.00
2022-12-22T21:40:50.011Z,98923.00
2022-12-22T21:43:37.987Z,98917.84
2022-12-22T21:46:26.189Z,98919.44
2022-12-22T21:49:19.724Z,98910.81
2022-12-22T21:52:10.322Z,98879.09
2022-12-22T21:54:58.265Z,98906.53
2022-12-22T21:57:46.568Z,98890.78
2022-12-22T22:00:35.332Z,98893.50
2022-12-22T22:03:23.389Z,98891.22
2022-12-22T22:06:11.312Z,98884.16
2022-12-22T22:09:00.903Z,98870.03
2022-12-22T22:12:06.486Z,98868.84
2022-12-22T22:14:54.534Z,98858.59
2022-12-22T22:17:43.535Z,98872.34
2022-12-22T22:20:33.022Z,98864.88
2022-12-22T22:23:21.077Z,98857.91
2022-12-22T22:26:11.592Z,98854.34
2022-12-22T22:28:59.662Z,98849.66
2022-12-22T22:31:47.775Z,98853.13
2022-12-22T22:34:35.965Z,98864.88
2022-12-22T22:37:24.117Z,98859.81
2022-12-22T22:40:15.030Z,98864.56
2022-12-22T22:43:04.593Z,98855.94
2022-12-22T22:45:53.143Z,98857.06
2022-12-22T22:48:41.195Z,98858.63
2022-12-22T22:51:29.218Z,98866.88
2022-12-22T22:54:17.225Z,98859.75
2022-12-22T22:57:05.449Z,98856.25
2022-12-22T22:59:54.771Z,98835.56
2022-12-22T23:02:43.016Z,98845.25
2022-12-22T23:05:31.092Z,98853.19
2022-12-22T23:08:19.056Z,98844.13
2022-12-22T23:11:07.408Z,98848.44
2022-12-22T23:13:56.125Z,98848.44
2022-12-22T23:16:45.486Z,98840.63
2022-12-22T23:19:33.566Z,98836.72
2022-12-22T23:22:21.553Z,98830.38
2022-12-22T23:25:10.305Z,98824.50
2022-12-22T23:27:58.274Z,98815.06
2022-12-22T23:30:49.704Z,98808.84
2022-12-22T23:33:39.130Z,98812.38
2022-12-22T23:36:27.200Z,98802.13
2022-12-22T23:39:15.370Z,98801.38
2022-12-22T23:42:03.878Z,98787.25
2022-12-22T23:44:51.859Z,98792.00
2022-12-22T23:47:39.873Z,98788.03
2022-12-22T23:50:29.242Z,98784.50
2022-12-22T23:53:18.031Z,98774.69
2022-12-22T23:56:07.012Z,98756.59
2022-12-22T23:58:55.387Z,98771.53
